Craigsville, WV

8:18 PM EDT on July 12, 2014 (GMT -0400)
KWVMTNEB2 Elev 2195 ft | 38.14 °N, 80.85 °W | Change Station

Current weather conditions updated 2 seconds ago

Overcast
Overcast
77.6 °F
Feels Like 79 °F
N
0.0
Wind Variable Wind from North
Gusts 0.0 mph

Tomorrow is forecast to be nearly the same temperature as today. Thunderstorms tomorrow night.

Today
High -- | Low -- °F
--% Chance of Precip.
Yesterday
High -- | Low -- °F
Precip. -- in
6:09 AM 8:47 PM
Full, 100% visible
Pressure 30.20 in
Visibility 10.0 miles
Clouds Mostly Cloudy 6000 ft
Overcast 7000 ft
Heat Index 79 °F
Dew Point 64 °F
Humidity 62%
Rainfall 0.00 in
Snow Depth Not available.
UV 0 out of 12
Pollen 3.90 out of 12
Air Quality Not available.
Flu Activity Sporadic
METAR KLWB 122355Z AUTO 00000KT 10SM BKN060 OVC070 26/19 A3020 RMK AO2 T02610191 10309 20261

More Conditions Fewer Conditions

Pressure 30.20 in
Visibility 10.0 miles
Clouds Mostly Cloudy 6000 ft
Overcast 7000 ft
Heat Index 79 °F
Dew Point 64 °F
Humidity 62%
Rainfall 0.00 in
Snow Depth Not available.
UV 0 out of 12
Pollen 3.90 out of 12
Air Quality Not available.
Flu Activity Sporadic
METAR KLWB 122355Z AUTO 00000KT 10SM BKN060 OVC070 26/19 A3020 RMK AO2 T02610191 10309 20261

More Conditions Fewer Conditions

10-Day Weather Forecast

Almanac

Astronomy

Jul. 12, 2014 Rise Set
Actual Time 6:09 AM EDT 8:47 PM EDT
Civil Twilight 5:38 AM EDT 9:17 PM EDT
Nautical Twilight 4:59 AM EDT 9:56 PM EDT
Astronomical Twilight 4:16 AM EDT 10:39 PM EDT
Moon 8:49 PM EDT (7/12) 6:25 AM EDT (7/12)
Length of Visible Light 15h 39m
Length of Day
14h 38m
Tomorrow will be 1m 9s shorter.
Full, 100% of the Moon is Illuminated
Today
Full
Jul 18
Last Quarter
Jul 26
New
Aug 3
First Quarter
Aug 10
Full

Today's Extremes

State Highs State Lows

Community

WunderPhotos

Upload Photos

1,733,008 photos uploaded!

WunderBlogs® & News

Nearby

Snow Depth

Station Depth Elevation
No new snow has been reported.

Earthquake Activity

City Distance Mag. Time & Date
No recent earthquake activity has been reported nearby.
Minimum magnitude displayed is 2.5.

Coastal Water Temperatures

Place Temperature
No Stations Reporting

Nearby Weather Stations

Station Location Temp. Heat Index Dew Point Humidity Wind Precip. Elev Updated Type
Mt Nebo, WV 77.6 °F 79 °F 64 °F 62% North  at  0.0 mph 0.00 in / hr 2195 ft 8:18 PM EDT Rapid Fire
Grapevine Circle, Gassaway, WV 78.7 °F 81 °F 68 °F 70% NNW  at  0.0 mph 0.00 in / hr 1270 ft 8:10 PM EDT Normal
RAWS FLATWOODS WV, Sutton, WV 81 °F 83 °F 64 °F 57% ENE  at  2 mph 0.00 in / hr 1267 ft 7:17 PM EDT MADIS
Frame Circle, Gassaway, WV 75.6 °F 77 °F 69 °F 79% North  at  0.0 mph 0.00 in / hr 890 ft 8:18 PM EDT Rapid Fire

Show More Stations Show Fewer Stations